RYR9EF LPPR-EDJA
Flight info
| Callsign | RYR9EF |
|---|---|
| Flight time | 2h 9m |
| Altitude | 38000 |
| Route | BELDU DCT CANAR DCT ADORO DCT FITSE DCT DGO DCT LPA DCT GOSVI DCT TOPTU DCT TOU DCT GAI DCT MEN DCT NINUN DCT LATAM DCT ETREK DCT LTP DCT SOPLO DCT OMASI DCT KINNI DCT LAMUR DCT KORED DCT BERSU N871 DITON T103 NUNRI Z6 ALG |
| Aircraft | B38M/M-SADE3FGILRWY/SB1 |
Departure
| Time | 2026-05-06 10:17 |
|---|---|
| Airport | Francisco de Sá Carneiro Airport (LPPR) |
Arrival
| Time | 2026-05-06 12:26 |
|---|---|
| Airport | Memmingen Allgau Airport (EDJA) |
| Time | Latitude | Longitude | Altitude | Speed | Heading |
|---|---|---|---|---|---|
| 2026-05-06 09:54 | 41.23869 | -8.67391 | 246 ft | 0 kts | 79° |
| 2026-05-06 10:08 | 41.23867 | -8.67406 | 246 ft | 4 kts | 79° |
| 2026-05-06 10:08 | 41.23863 | -8.67442 | 244 ft | 4 kts | 86° |
| 2026-05-06 10:08 | 41.23865 | -8.67475 | 242 ft | 4 kts | 115° |
| 2026-05-06 10:08 | 41.23879 | -8.67490 | 241 ft | 3 kts | 169° |
| 2026-05-06 10:09 | 41.23905 | -8.67497 | 241 ft | 4 kts | 169° |
| 2026-05-06 10:09 | 41.23931 | -8.67504 | 240 ft | 4 kts | 169° |
| 2026-05-06 10:09 | 41.23958 | -8.67511 | 240 ft | 4 kts | 169° |
| 2026-05-06 10:09 | 41.23985 | -8.67518 | 240 ft | 4 kts | 169° |
| 2026-05-06 10:10 | 41.24011 | -8.67525 | 240 ft | 3 kts | 169° |
| 2026-05-06 10:10 | 41.24015 | -8.67526 | 240 ft | 0 kts | 169° |
| 2026-05-06 10:12 | 41.24000 | -8.67522 | 240 ft | 7 kts | 169° |
| 2026-05-06 10:12 | 41.23919 | -8.67500 | 240 ft | 14 kts | 169° |
| 2026-05-06 10:12 | 41.23817 | -8.67474 | 241 ft | 16 kts | 170° |
| 2026-05-06 10:13 | 41.23707 | -8.67449 | 240 ft | 16 kts | 165° |
| 2026-05-06 10:13 | 41.23592 | -8.67415 | 240 ft | 18 kts | 168° |
| 2026-05-06 10:13 | 41.23484 | -8.67385 | 242 ft | 15 kts | 168° |
| 2026-05-06 10:13 | 41.23374 | -8.67368 | 241 ft | 17 kts | 201° |
| 2026-05-06 10:14 | 41.23322 | -8.67483 | 238 ft | 12 kts | 258° |
| 2026-05-06 10:14 | 41.23313 | -8.67540 | 238 ft | 0 kts | 259° |
| 2026-05-06 10:14 | 41.23313 | -8.67544 | 238 ft | 0 kts | 259° |
| 2026-05-06 10:15 | 41.23310 | -8.67560 | 238 ft | 4 kts | 259° |
| 2026-05-06 10:15 | 41.23300 | -8.67632 | 238 ft | 12 kts | 259° |
| 2026-05-06 10:15 | 41.23324 | -8.67724 | 240 ft | 11 kts | 325° |
| 2026-05-06 10:15 | 41.23372 | -8.67749 | 240 ft | 0 kts | 346° |
| 2026-05-06 10:16 | 41.23505 | -8.67786 | 238 ft | 55 kts | 349° |
| 2026-05-06 10:16 | 41.24123 | -8.67945 | 219 ft | 123 kts | 349° |
| 2026-05-06 10:16 | 41.25130 | -8.68206 | 251 ft | 168 kts | 349° |
| 2026-05-06 10:17 | 41.26324 | -8.68537 | 693 ft | 186 kts | 350° |
| 2026-05-06 10:17 | 41.27551 | -8.68912 | 1663 ft | 171 kts | 345° |
| 2026-05-06 10:17 | 41.28738 | -8.69296 | 2318 ft | 185 kts | 347° |
| 2026-05-06 10:17 | 41.30081 | -8.69695 | 2778 ft | 212 kts | 348° |
| 2026-05-06 10:18 | 41.31607 | -8.70099 | 3207 ft | 237 kts | 349° |
| 2026-05-06 10:18 | 41.33259 | -8.70522 | 3943 ft | 247 kts | 349° |
| 2026-05-06 10:18 | 41.35008 | -8.70960 | 4583 ft | 263 kts | 349° |
| 2026-05-06 10:18 | 41.36807 | -8.71401 | 5479 ft | 264 kts | 350° |
| 2026-05-06 10:19 | 41.38613 | -8.71822 | 6322 ft | 269 kts | 354° |
| 2026-05-06 10:19 | 41.40462 | -8.71557 | 7175 ft | 271 kts | 21° |
| 2026-05-06 10:19 | 41.42037 | -8.70180 | 7980 ft | 275 kts | 47° |
| 2026-05-06 10:19 | 41.43016 | -8.67987 | 8773 ft | 280 kts | 72° |
| 2026-05-06 10:20 | 41.43453 | -8.65439 | 9550 ft | 285 kts | 77° |
| 2026-05-06 10:20 | 41.43865 | -8.62840 | 10283 ft | 290 kts | 78° |
| 2026-05-06 10:20 | 41.44249 | -8.60122 | 10692 ft | 309 kts | 85° |
| 2026-05-06 10:20 | 41.44088 | -8.57186 | 11058 ft | 328 kts | 97° |
| 2026-05-06 10:21 | 41.43784 | -8.54095 | 11448 ft | 344 kts | 97° |
| 2026-05-06 10:21 | 41.43468 | -8.50882 | 12021 ft | 352 kts | 97° |
| 2026-05-06 10:21 | 41.43142 | -8.47627 | 12781 ft | 356 kts | 97° |
| 2026-05-06 10:21 | 41.42811 | -8.44353 | 13498 ft | 361 kts | 97° |
| 2026-05-06 10:22 | 41.42474 | -8.41026 | 14270 ft | 364 kts | 97° |
| 2026-05-06 10:22 | 41.42131 | -8.37656 | 14975 ft | 369 kts | 97° |
| 2026-05-06 10:22 | 41.41782 | -8.34251 | 15726 ft | 373 kts | 97° |
| 2026-05-06 10:22 | 41.41430 | -8.30811 | 16423 ft | 377 kts | 97° |
| 2026-05-06 10:23 | 41.41077 | -8.27371 | 17097 ft | 382 kts | 97° |
| 2026-05-06 10:23 | 41.40714 | -8.23852 | 17745 ft | 386 kts | 97° |
| 2026-05-06 10:23 | 41.40346 | -8.20288 | 18380 ft | 390 kts | 97° |
| 2026-05-06 10:23 | 41.39974 | -8.16700 | 19002 ft | 393 kts | 97° |
| 2026-05-06 10:24 | 41.39596 | -8.13071 | 19589 ft | 398 kts | 97° |
| 2026-05-06 10:24 | 41.39216 | -8.09419 | 20158 ft | 402 kts | 97° |
| 2026-05-06 10:24 | 41.38833 | -8.05751 | 20722 ft | 406 kts | 97° |
| 2026-05-06 10:24 | 41.38441 | -8.02016 | 21286 ft | 409 kts | 97° |
| 2026-05-06 10:25 | 41.38044 | -7.98246 | 21809 ft | 413 kts | 97° |
| 2026-05-06 10:25 | 41.37644 | -7.94461 | 22351 ft | 416 kts | 97° |
| 2026-05-06 10:25 | 41.37239 | -7.90634 | 22869 ft | 420 kts | 97° |
| 2026-05-06 10:25 | 41.36828 | -7.86763 | 23353 ft | 424 kts | 98° |
| 2026-05-06 10:26 | 41.36413 | -7.82872 | 23852 ft | 427 kts | 98° |
| 2026-05-06 10:26 | 41.36013 | -7.78958 | 24299 ft | 430 kts | 94° |
| 2026-05-06 10:26 | 41.36148 | -7.74982 | 24784 ft | 431 kts | 82° |
| 2026-05-06 10:26 | 41.36489 | -7.70999 | 25159 ft | 436 kts | 83° |
| 2026-05-06 10:27 | 41.36831 | -7.66967 | 25594 ft | 439 kts | 83° |
| 2026-05-06 10:27 | 41.37185 | -7.62916 | 26005 ft | 443 kts | 82° |
| 2026-05-06 10:27 | 41.37544 | -7.58830 | 26406 ft | 446 kts | 82° |
| 2026-05-06 10:27 | 41.37907 | -7.54710 | 26791 ft | 449 kts | 82° |
| 2026-05-06 10:28 | 41.38269 | -7.50571 | 27176 ft | 452 kts | 82° |
| 2026-05-06 10:28 | 41.38633 | -7.46409 | 27547 ft | 455 kts | 83° |
| 2026-05-06 10:28 | 41.38996 | -7.42210 | 27897 ft | 458 kts | 83° |
| 2026-05-06 10:28 | 41.39362 | -7.37981 | 28250 ft | 461 kts | 83° |
| 2026-05-06 10:29 | 41.39728 | -7.33722 | 28584 ft | 464 kts | 83° |
| 2026-05-06 10:29 | 41.40095 | -7.29431 | 28934 ft | 467 kts | 83° |
| 2026-05-06 10:29 | 41.40463 | -7.25124 | 29256 ft | 470 kts | 83° |
| 2026-05-06 10:29 | 41.40831 | -7.20789 | 29570 ft | 473 kts | 83° |
| 2026-05-06 10:30 | 41.41199 | -7.16425 | 29873 ft | 476 kts | 83° |
| 2026-05-06 10:30 | 41.41568 | -7.12039 | 30164 ft | 479 kts | 83° |
| 2026-05-06 10:30 | 41.41938 | -7.07619 | 30492 ft | 481 kts | 83° |
| 2026-05-06 10:30 | 41.42308 | -7.03183 | 30810 ft | 483 kts | 83° |
| 2026-05-06 10:31 | 41.42678 | -6.98717 | 31103 ft | 486 kts | 83° |
| 2026-05-06 10:31 | 41.43049 | -6.94228 | 31350 ft | 489 kts | 83° |
| 2026-05-06 10:31 | 41.43419 | -6.89719 | 31653 ft | 491 kts | 83° |
| 2026-05-06 10:31 | 41.43788 | -6.85194 | 32041 ft | 490 kts | 83° |
| 2026-05-06 10:32 | 41.44155 | -6.80676 | 32434 ft | 490 kts | 83° |
| 2026-05-06 10:32 | 41.44519 | -6.76187 | 32783 ft | 490 kts | 83° |
| 2026-05-06 10:32 | 41.44882 | -6.71678 | 33170 ft | 489 kts | 83° |
| 2026-05-06 10:32 | 41.45243 | -6.67167 | 33514 ft | 489 kts | 83° |
| 2026-05-06 10:33 | 41.45602 | -6.62663 | 33856 ft | 489 kts | 83° |
| 2026-05-06 10:33 | 41.45960 | -6.58156 | 34228 ft | 488 kts | 83° |
| 2026-05-06 10:33 | 41.46315 | -6.53652 | 34555 ft | 489 kts | 84° |
| 2026-05-06 10:33 | 41.46670 | -6.49143 | 34865 ft | 489 kts | 84° |
| 2026-05-06 10:34 | 41.47020 | -6.44659 | 35196 ft | 488 kts | 84° |
| 2026-05-06 10:34 | 41.47370 | -6.40159 | 35520 ft | 488 kts | 84° |
| 2026-05-06 10:34 | 41.47719 | -6.35659 | 35809 ft | 488 kts | 84° |
| 2026-05-06 10:34 | 41.48068 | -6.31156 | 36087 ft | 488 kts | 83° |
| 2026-05-06 10:35 | 41.48768 | -6.26744 | 36331 ft | 486 kts | 69° |
| 2026-05-06 10:35 | 41.50022 | -6.22567 | 36621 ft | 485 kts | 68° |
| 2026-05-06 10:35 | 41.51259 | -6.18368 | 36816 ft | 487 kts | 67° |
| 2026-05-06 10:35 | 41.52088 | -6.15589 | 37005 ft | 486 kts | 67° |
| 2026-05-06 10:36 | 41.53751 | -6.10069 | 37364 ft | 485 kts | 67° |
| 2026-05-06 10:36 | 41.55010 | -6.05898 | 37628 ft | 484 kts | 67° |
| 2026-05-06 10:36 | 41.56266 | -6.01737 | 37877 ft | 483 kts | 67° |
| 2026-05-06 10:36 | 41.57516 | -5.97589 | 38044 ft | 483 kts | 67° |
| 2026-05-06 10:37 | 41.60011 | -5.89292 | 38019 ft | 479 kts | 67° |
| 2026-05-06 10:37 | 41.62084 | -5.82378 | 38029 ft | 480 kts | 67° |
| 2026-05-06 10:38 | 41.64559 | -5.74096 | 38027 ft | 480 kts | 68° |
| 2026-05-06 10:38 | 41.67027 | -5.65811 | 38026 ft | 480 kts | 68° |
| 2026-05-06 10:39 | 41.69498 | -5.57497 | 38020 ft | 481 kts | 68° |
| 2026-05-06 10:39 | 41.71956 | -5.49194 | 38023 ft | 481 kts | 68° |
| 2026-05-06 10:40 | 41.74414 | -5.40868 | 38013 ft | 481 kts | 68° |
| 2026-05-06 10:40 | 41.76866 | -5.32533 | 38021 ft | 482 kts | 68° |
| 2026-05-06 10:41 | 41.79319 | -5.24172 | 38018 ft | 482 kts | 68° |
| 2026-05-06 10:41 | 41.81748 | -5.15863 | 38020 ft | 484 kts | 68° |
| 2026-05-06 10:42 | 41.84195 | -5.07464 | 38017 ft | 483 kts | 68° |
| 2026-05-06 10:42 | 41.86640 | -4.99048 | 38018 ft | 485 kts | 68° |
| 2026-05-06 10:43 | 41.89081 | -4.90616 | 38012 ft | 485 kts | 68° |
| 2026-05-06 10:44 | 41.92734 | -4.77946 | 38017 ft | 486 kts | 68° |
| 2026-05-06 10:44 | 41.95161 | -4.69492 | 38022 ft | 486 kts | 68° |
| 2026-05-06 10:45 | 41.97593 | -4.60996 | 38018 ft | 487 kts | 68° |
| 2026-05-06 10:45 | 42.00013 | -4.52512 | 38023 ft | 487 kts | 68° |
| 2026-05-06 10:46 | 42.02431 | -4.44005 | 38011 ft | 486 kts | 68° |
| 2026-05-06 10:46 | 42.04838 | -4.35508 | 38016 ft | 486 kts | 68° |
| 2026-05-06 10:47 | 42.07236 | -4.27013 | 38018 ft | 487 kts | 69° |
| 2026-05-06 10:47 | 42.09635 | -4.18492 | 38016 ft | 487 kts | 69° |
| 2026-05-06 10:48 | 42.12028 | -4.09957 | 38021 ft | 488 kts | 69° |
| 2026-05-06 10:48 | 42.14421 | -4.01397 | 38014 ft | 488 kts | 69° |
| 2026-05-06 10:49 | 42.16800 | -3.92855 | 38016 ft | 488 kts | 69° |
| 2026-05-06 10:49 | 42.19181 | -3.84282 | 38019 ft | 488 kts | 69° |
| 2026-05-06 10:50 | 42.21552 | -3.75708 | 38016 ft | 488 kts | 69° |
| 2026-05-06 10:50 | 42.23917 | -3.67132 | 38015 ft | 487 kts | 69° |
| 2026-05-06 10:51 | 42.26267 | -3.58576 | 38015 ft | 487 kts | 69° |
| 2026-05-06 10:51 | 42.28616 | -3.49996 | 38017 ft | 487 kts | 69° |
| 2026-05-06 10:52 | 42.30961 | -3.41403 | 38016 ft | 487 kts | 69° |
| 2026-05-06 10:52 | 42.33293 | -3.32826 | 38017 ft | 486 kts | 69° |
| 2026-05-06 10:53 | 42.35613 | -3.24263 | 38020 ft | 487 kts | 69° |
| 2026-05-06 10:53 | 42.37936 | -3.15661 | 38016 ft | 487 kts | 69° |
| 2026-05-06 10:54 | 42.40253 | -3.07059 | 38032 ft | 487 kts | 69° |
| 2026-05-06 10:54 | 42.42561 | -2.98463 | 38024 ft | 487 kts | 69° |
| 2026-05-06 10:55 | 42.44821 | -2.89819 | 38018 ft | 487 kts | 76° |
| 2026-05-06 10:55 | 42.45252 | -2.85302 | 38032 ft | 483 kts | 90° |
| 2026-05-06 10:55 | 42.45353 | -2.80744 | 38004 ft | 487 kts | 89° |
| 2026-05-06 10:56 | 42.45563 | -2.71573 | 38035 ft | 488 kts | 90° |
| 2026-05-06 10:56 | 42.45698 | -2.62398 | 38021 ft | 489 kts | 90° |
| 2026-05-06 10:57 | 42.45817 | -2.53192 | 38023 ft | 489 kts | 90° |
| 2026-05-06 10:57 | 42.45928 | -2.43964 | 38019 ft | 491 kts | 90° |
| 2026-05-06 10:58 | 42.46035 | -2.34730 | 38016 ft | 490 kts | 89° |
| 2026-05-06 10:58 | 42.46478 | -2.30181 | 38009 ft | 490 kts | 76° |
| 2026-05-06 10:58 | 42.47258 | -2.25676 | 38010 ft | 493 kts | 78° |
| 2026-05-06 10:59 | 42.48738 | -2.16617 | 38023 ft | 493 kts | 77° |
| 2026-05-06 10:59 | 42.50236 | -2.07559 | 38015 ft | 492 kts | 77° |
| 2026-05-06 11:00 | 42.51726 | -1.98519 | 38016 ft | 492 kts | 77° |
| 2026-05-06 11:00 | 42.53214 | -1.89444 | 38015 ft | 494 kts | 78° |
| 2026-05-06 11:01 | 42.54696 | -1.80356 | 38019 ft | 494 kts | 78° |
| 2026-05-06 11:01 | 42.56171 | -1.71260 | 38018 ft | 493 kts | 78° |
| 2026-05-06 11:02 | 42.57633 | -1.62201 | 38019 ft | 493 kts | 78° |
| 2026-05-06 11:02 | 42.59091 | -1.53118 | 38016 ft | 492 kts | 78° |
| 2026-05-06 11:03 | 42.60541 | -1.44039 | 38017 ft | 492 kts | 78° |
| 2026-05-06 11:03 | 42.61982 | -1.34962 | 38017 ft | 492 kts | 78° |
| 2026-05-06 11:04 | 42.63412 | -1.25908 | 38021 ft | 491 kts | 78° |
| 2026-05-06 11:04 | 42.64837 | -1.16838 | 38015 ft | 491 kts | 78° |
| 2026-05-06 11:05 | 42.66254 | -1.07771 | 38016 ft | 490 kts | 78° |
| 2026-05-06 11:05 | 42.67660 | -0.98722 | 38010 ft | 490 kts | 78° |
| 2026-05-06 11:06 | 42.69061 | -0.89660 | 38009 ft | 490 kts | 78° |
| 2026-05-06 11:06 | 42.70444 | -0.80657 | 38003 ft | 489 kts | 78° |
| 2026-05-06 11:07 | 42.71828 | -0.71604 | 38004 ft | 489 kts | 78° |
| 2026-05-06 11:07 | 42.73199 | -0.62579 | 37997 ft | 488 kts | 78° |
| 2026-05-06 11:08 | 42.74566 | -0.53537 | 38000 ft | 488 kts | 78° |
| 2026-05-06 11:08 | 42.75927 | -0.44479 | 37987 ft | 489 kts | 79° |
| 2026-05-06 11:09 | 42.77279 | -0.35431 | 37986 ft | 487 kts | 79° |
| 2026-05-06 11:09 | 42.78621 | -0.26413 | 37996 ft | 488 kts | 79° |
| 2026-05-06 11:10 | 42.80805 | -0.18020 | 37979 ft | 483 kts | 54° |
| 2026-05-06 11:10 | 42.84750 | -0.11039 | 37984 ft | 484 kts | 50° |
| 2026-05-06 11:11 | 42.88897 | -0.04027 | 37986 ft | 485 kts | 49° |
| 2026-05-06 11:11 | 42.93046 | 0.02908 | 37982 ft | 484 kts | 49° |
| 2026-05-06 11:12 | 42.97337 | 0.10044 | 37967 ft | 490 kts | 50° |
| 2026-05-06 11:12 | 43.01644 | 0.17309 | 37970 ft | 493 kts | 50° |
| 2026-05-06 11:13 | 43.05961 | 0.24555 | 37984 ft | 493 kts | 50° |
| 2026-05-06 11:13 | 43.10277 | 0.31826 | 37990 ft | 492 kts | 50° |
| 2026-05-06 11:14 | 43.14562 | 0.39062 | 37989 ft | 492 kts | 50° |
| 2026-05-06 11:14 | 43.18863 | 0.46343 | 37986 ft | 492 kts | 50° |
| 2026-05-06 11:15 | 43.23155 | 0.53627 | 37986 ft | 492 kts | 50° |
| 2026-05-06 11:15 | 43.27451 | 0.60935 | 37980 ft | 492 kts | 50° |
| 2026-05-06 11:16 | 43.31740 | 0.68249 | 37964 ft | 491 kts | 50° |
| 2026-05-06 11:16 | 43.36024 | 0.75574 | 37956 ft | 492 kts | 50° |
| 2026-05-06 11:17 | 43.40294 | 0.82894 | 37980 ft | 492 kts | 50° |
| 2026-05-06 11:17 | 43.44572 | 0.90246 | 37958 ft | 492 kts | 51° |
| 2026-05-06 11:18 | 43.48842 | 0.97602 | 37964 ft | 492 kts | 51° |
| 2026-05-06 11:18 | 43.53102 | 1.04960 | 37957 ft | 492 kts | 51° |
| 2026-05-06 11:19 | 43.57341 | 1.12298 | 37955 ft | 492 kts | 51° |
| 2026-05-06 11:19 | 43.60832 | 1.18354 | 37957 ft | 492 kts | 51° |
| 2026-05-06 11:20 | 43.65782 | 1.26960 | 37955 ft | 492 kts | 51° |
| 2026-05-06 11:20 | 43.69906 | 1.34488 | 37974 ft | 493 kts | 53° |
| 2026-05-06 11:21 | 43.73320 | 1.40878 | 37964 ft | 493 kts | 53° |
| 2026-05-06 11:21 | 43.77395 | 1.48499 | 37964 ft | 493 kts | 53° |
| 2026-05-06 11:22 | 43.81469 | 1.56136 | 37973 ft | 493 kts | 53° |
| 2026-05-06 11:22 | 43.85530 | 1.63767 | 37970 ft | 493 kts | 53° |
| 2026-05-06 11:23 | 43.89593 | 1.71424 | 37981 ft | 493 kts | 53° |
| 2026-05-06 11:23 | 43.93655 | 1.79095 | 37978 ft | 493 kts | 53° |
| 2026-05-06 11:24 | 43.97561 | 1.86822 | 37979 ft | 493 kts | 55° |
| 2026-05-06 11:24 | 44.01464 | 1.94653 | 37977 ft | 493 kts | 55° |
| 2026-05-06 11:25 | 44.05369 | 2.02497 | 37978 ft | 493 kts | 55° |
| 2026-05-06 11:25 | 44.09268 | 2.10348 | 37981 ft | 493 kts | 55° |
| 2026-05-06 11:26 | 44.13151 | 2.18187 | 37978 ft | 493 kts | 55° |
| 2026-05-06 11:26 | 44.17042 | 2.26065 | 37972 ft | 494 kts | 56° |
| 2026-05-06 11:27 | 44.20922 | 2.33941 | 37965 ft | 493 kts | 56° |
| 2026-05-06 11:27 | 44.24775 | 2.41784 | 37964 ft | 493 kts | 56° |
| 2026-05-06 11:28 | 44.28630 | 2.49653 | 37953 ft | 492 kts | 56° |
| 2026-05-06 11:28 | 44.32487 | 2.57548 | 37964 ft | 492 kts | 56° |
| 2026-05-06 11:29 | 44.36332 | 2.65438 | 37961 ft | 491 kts | 56° |
| 2026-05-06 11:29 | 44.40163 | 2.73322 | 37955 ft | 491 kts | 56° |
| 2026-05-06 11:30 | 44.43998 | 2.81236 | 37968 ft | 491 kts | 56° |
| 2026-05-06 11:30 | 44.47822 | 2.89149 | 37955 ft | 491 kts | 56° |
| 2026-05-06 11:31 | 44.51648 | 2.97085 | 37961 ft | 492 kts | 56° |
| 2026-05-06 11:31 | 44.55459 | 3.05014 | 37956 ft | 492 kts | 57° |
| 2026-05-06 11:32 | 44.59250 | 3.12917 | 37942 ft | 491 kts | 57° |
| 2026-05-06 11:32 | 44.62721 | 3.21159 | 37951 ft | 491 kts | 62° |
| 2026-05-06 11:33 | 44.66072 | 3.29517 | 37934 ft | 491 kts | 61° |
| 2026-05-06 11:33 | 44.69435 | 3.37838 | 37933 ft | 491 kts | 61° |
| 2026-05-06 11:34 | 44.72801 | 3.46183 | 37933 ft | 491 kts | 61° |
| 2026-05-06 11:34 | 44.76162 | 3.54541 | 37924 ft | 491 kts | 62° |
| 2026-05-06 11:35 | 44.79483 | 3.62915 | 37918 ft | 491 kts | 62° |
| 2026-05-06 11:35 | 44.82802 | 3.71307 | 37917 ft | 491 kts | 62° |
| 2026-05-06 11:36 | 44.86116 | 3.79709 | 37918 ft | 490 kts | 62° |
| 2026-05-06 11:36 | 44.89424 | 3.88122 | 37914 ft | 490 kts | 62° |
| 2026-05-06 11:37 | 44.92718 | 3.96524 | 37917 ft | 490 kts | 62° |
| 2026-05-06 11:37 | 44.96013 | 4.04954 | 37910 ft | 491 kts | 63° |
| 2026-05-06 11:38 | 44.99311 | 4.13418 | 37917 ft | 492 kts | 63° |
| 2026-05-06 11:38 | 45.02605 | 4.21893 | 37920 ft | 492 kts | 63° |
| 2026-05-06 11:39 | 45.05882 | 4.30357 | 37920 ft | 492 kts | 63° |
| 2026-05-06 11:39 | 45.09164 | 4.38857 | 37931 ft | 492 kts | 63° |
| 2026-05-06 11:40 | 45.12435 | 4.47355 | 37939 ft | 492 kts | 63° |
| 2026-05-06 11:40 | 45.15675 | 4.55798 | 37929 ft | 492 kts | 63° |
| 2026-05-06 11:41 | 45.18932 | 4.64313 | 37931 ft | 492 kts | 63° |
| 2026-05-06 11:41 | 45.22187 | 4.72845 | 37934 ft | 492 kts | 63° |
| 2026-05-06 11:42 | 45.25439 | 4.81402 | 37931 ft | 492 kts | 63° |
| 2026-05-06 11:42 | 45.28678 | 4.89947 | 37932 ft | 493 kts | 63° |
| 2026-05-06 11:43 | 45.31920 | 4.98528 | 37939 ft | 493 kts | 63° |
| 2026-05-06 11:43 | 45.35155 | 5.07116 | 37935 ft | 493 kts | 64° |
| 2026-05-06 11:44 | 45.39997 | 5.20021 | 37939 ft | 494 kts | 64° |
| 2026-05-06 11:44 | 45.43224 | 5.28659 | 37947 ft | 494 kts | 64° |
| 2026-05-06 11:45 | 45.46447 | 5.37308 | 37941 ft | 495 kts | 64° |
| 2026-05-06 11:45 | 45.50266 | 5.45420 | 37924 ft | 495 kts | 43° |
| 2026-05-06 11:46 | 45.55351 | 5.52066 | 37923 ft | 498 kts | 42° |
| 2026-05-06 11:46 | 45.60506 | 5.58704 | 37946 ft | 500 kts | 42° |
| 2026-05-06 11:47 | 45.65674 | 5.65326 | 37955 ft | 500 kts | 42° |
| 2026-05-06 11:47 | 45.70824 | 5.71938 | 37956 ft | 498 kts | 42° |
| 2026-05-06 11:48 | 45.75987 | 5.78564 | 37968 ft | 499 kts | 42° |
| 2026-05-06 11:48 | 45.81153 | 5.85208 | 37955 ft | 499 kts | 42° |
| 2026-05-06 11:49 | 45.86316 | 5.91865 | 37943 ft | 499 kts | 42° |
| 2026-05-06 11:49 | 45.91463 | 5.98519 | 37942 ft | 499 kts | 42° |
| 2026-05-06 11:50 | 45.96584 | 6.05154 | 37940 ft | 499 kts | 42° |
| 2026-05-06 11:50 | 46.01732 | 6.11843 | 37933 ft | 499 kts | 42° |
| 2026-05-06 11:51 | 46.06880 | 6.18547 | 37935 ft | 499 kts | 42° |
| 2026-05-06 11:51 | 46.09295 | 6.22075 | 37902 ft | 497 kts | 54° |
| 2026-05-06 11:51 | 46.11266 | 6.26141 | 37942 ft | 496 kts | 56° |
| 2026-05-06 11:52 | 46.15286 | 6.34260 | 37923 ft | 497 kts | 56° |
| 2026-05-06 11:52 | 46.19265 | 6.42418 | 37914 ft | 497 kts | 56° |
| 2026-05-06 11:53 | 46.23225 | 6.50569 | 37915 ft | 497 kts | 56° |
| 2026-05-06 11:53 | 46.27189 | 6.58755 | 37910 ft | 497 kts | 57° |
| 2026-05-06 11:54 | 46.31144 | 6.66943 | 37911 ft | 497 kts | 57° |
| 2026-05-06 11:54 | 46.35096 | 6.75151 | 37893 ft | 497 kts | 57° |
| 2026-05-06 11:55 | 46.39028 | 6.83342 | 37889 ft | 497 kts | 57° |
| 2026-05-06 11:55 | 46.42973 | 6.91582 | 37888 ft | 497 kts | 57° |
| 2026-05-06 11:56 | 46.46908 | 6.99826 | 37887 ft | 497 kts | 57° |
| 2026-05-06 11:56 | 46.50840 | 7.08089 | 37892 ft | 498 kts | 57° |
| 2026-05-06 11:57 | 46.54761 | 7.16347 | 37889 ft | 497 kts | 57° |
| 2026-05-06 11:57 | 46.59438 | 7.23646 | 37888 ft | 496 kts | 31° |
| 2026-05-06 11:58 | 46.65595 | 7.28179 | 37858 ft | 497 kts | 24° |
| 2026-05-06 11:58 | 46.71796 | 7.32436 | 37894 ft | 498 kts | 24° |
| 2026-05-06 11:59 | 46.78068 | 7.36681 | 37891 ft | 497 kts | 23° |
| 2026-05-06 11:59 | 46.84204 | 7.41318 | 37860 ft | 498 kts | 38° |
| 2026-05-06 12:00 | 46.86685 | 7.44804 | 37893 ft | 495 kts | 51° |
| 2026-05-06 12:00 | 46.88902 | 7.48681 | 37869 ft | 498 kts | 51° |
| 2026-05-06 12:00 | 46.93264 | 7.56522 | 37894 ft | 498 kts | 52° |
| 2026-05-06 12:01 | 46.97576 | 7.64454 | 37884 ft | 497 kts | 53° |
| 2026-05-06 12:01 | 47.01867 | 7.72392 | 37879 ft | 496 kts | 53° |
| 2026-05-06 12:02 | 47.06150 | 7.80339 | 37877 ft | 497 kts | 53° |
| 2026-05-06 12:02 | 47.10419 | 7.88284 | 37866 ft | 497 kts | 53° |
| 2026-05-06 12:03 | 47.14516 | 7.96433 | 37859 ft | 494 kts | 60° |
| 2026-05-06 12:03 | 47.18186 | 8.04972 | 37841 ft | 495 kts | 60° |
| 2026-05-06 12:04 | 47.21819 | 8.13498 | 37851 ft | 496 kts | 60° |
| 2026-05-06 12:04 | 47.25421 | 8.21985 | 37849 ft | 494 kts | 60° |
| 2026-05-06 12:05 | 47.27228 | 8.26249 | 37730 ft | 493 kts | 60° |
| 2026-05-06 12:05 | 47.29058 | 8.30579 | 36563 ft | 502 kts | 61° |
| 2026-05-06 12:05 | 47.30598 | 8.35105 | 36122 ft | 489 kts | 75° |
| 2026-05-06 12:05 | 47.31642 | 8.39864 | 35337 ft | 490 kts | 76° |
| 2026-05-06 12:06 | 47.32721 | 8.44636 | 34501 ft | 494 kts | 76° |
| 2026-05-06 12:06 | 47.33799 | 8.49475 | 33594 ft | 499 kts | 77° |
| 2026-05-06 12:06 | 47.34878 | 8.54358 | 32688 ft | 504 kts | 77° |
| 2026-05-06 12:06 | 47.35962 | 8.59284 | 31883 ft | 505 kts | 76° |
| 2026-05-06 12:07 | 47.36674 | 8.62524 | 31362 ft | 505 kts | 76° |
| 2026-05-06 12:07 | 47.37758 | 8.67468 | 30551 ft | 506 kts | 76° |
| 2026-05-06 12:07 | 47.38838 | 8.72408 | 29714 ft | 506 kts | 76° |
| 2026-05-06 12:07 | 47.39916 | 8.77349 | 28887 ft | 506 kts | 76° |
| 2026-05-06 12:08 | 47.40986 | 8.82262 | 28186 ft | 503 kts | 76° |
| 2026-05-06 12:08 | 47.42048 | 8.87155 | 27535 ft | 498 kts | 76° |
| 2026-05-06 12:08 | 47.43096 | 8.91990 | 26915 ft | 492 kts | 76° |
| 2026-05-06 12:08 | 47.44130 | 8.96777 | 26287 ft | 487 kts | 76° |
| 2026-05-06 12:09 | 47.45154 | 9.01529 | 25700 ft | 482 kts | 76° |
| 2026-05-06 12:09 | 47.46165 | 9.06225 | 25130 ft | 477 kts | 76° |
| 2026-05-06 12:09 | 47.47161 | 9.10868 | 24550 ft | 472 kts | 76° |
| 2026-05-06 12:09 | 47.48137 | 9.15426 | 23993 ft | 467 kts | 76° |
| 2026-05-06 12:10 | 47.49109 | 9.19973 | 23415 ft | 462 kts | 76° |
| 2026-05-06 12:10 | 47.50062 | 9.24442 | 22515 ft | 453 kts | 76° |
| 2026-05-06 12:10 | 47.51004 | 9.28871 | 21529 ft | 452 kts | 76° |
| 2026-05-06 12:10 | 47.51942 | 9.33287 | 20977 ft | 447 kts | 76° |
| 2026-05-06 12:11 | 47.52856 | 9.37605 | 20167 ft | 435 kts | 76° |
| 2026-05-06 12:11 | 47.53756 | 9.41859 | 19161 ft | 431 kts | 76° |
| 2026-05-06 12:11 | 47.54643 | 9.46064 | 18193 ft | 426 kts | 76° |
| 2026-05-06 12:11 | 47.55513 | 9.50186 | 17518 ft | 419 kts | 76° |
| 2026-05-06 12:12 | 47.56360 | 9.54225 | 16913 ft | 416 kts | 76° |
| 2026-05-06 12:12 | 47.57214 | 9.58300 | 16352 ft | 413 kts | 76° |
| 2026-05-06 12:12 | 47.58068 | 9.62349 | 15790 ft | 410 kts | 75° |
| 2026-05-06 12:12 | 47.59347 | 9.66127 | 15161 ft | 414 kts | 56° |
| 2026-05-06 12:13 | 47.61138 | 9.69435 | 14714 ft | 409 kts | 52° |
| 2026-05-06 12:13 | 47.62937 | 9.72675 | 14179 ft | 405 kts | 52° |
| 2026-05-06 12:13 | 47.64734 | 9.75877 | 13650 ft | 402 kts | 52° |
| 2026-05-06 12:13 | 47.66520 | 9.79038 | 13127 ft | 398 kts | 52° |
| 2026-05-06 12:14 | 47.68279 | 9.82143 | 12620 ft | 393 kts | 51° |
| 2026-05-06 12:14 | 47.70007 | 9.85195 | 12121 ft | 389 kts | 51° |
| 2026-05-06 12:14 | 47.71740 | 9.88257 | 11597 ft | 385 kts | 51° |
| 2026-05-06 12:14 | 47.73444 | 9.91270 | 11213 ft | 377 kts | 51° |
| 2026-05-06 12:15 | 47.75101 | 9.94202 | 11025 ft | 363 kts | 51° |
| 2026-05-06 12:15 | 47.76681 | 9.97047 | 10857 ft | 350 kts | 55° |
| 2026-05-06 12:15 | 47.77911 | 10.00089 | 10650 ft | 338 kts | 62° |
| 2026-05-06 12:15 | 47.79052 | 10.03081 | 10496 ft | 327 kts | 62° |
| 2026-05-06 12:16 | 47.80159 | 10.05964 | 10340 ft | 316 kts | 61° |
| 2026-05-06 12:16 | 47.81234 | 10.08752 | 10198 ft | 305 kts | 61° |
| 2026-05-06 12:16 | 47.82292 | 10.11418 | 10083 ft | 294 kts | 60° |
| 2026-05-06 12:16 | 47.83321 | 10.13984 | 9885 ft | 286 kts | 60° |
| 2026-05-06 12:17 | 47.84318 | 10.16504 | 9648 ft | 280 kts | 60° |
| 2026-05-06 12:17 | 47.85309 | 10.18989 | 9355 ft | 277 kts | 59° |
| 2026-05-06 12:17 | 47.86290 | 10.21441 | 9047 ft | 275 kts | 60° |
| 2026-05-06 12:17 | 47.87262 | 10.23877 | 8732 ft | 272 kts | 60° |
| 2026-05-06 12:18 | 47.88223 | 10.26291 | 8444 ft | 270 kts | 60° |
| 2026-05-06 12:18 | 47.89173 | 10.28685 | 8158 ft | 267 kts | 60° |
| 2026-05-06 12:18 | 47.90112 | 10.31051 | 7869 ft | 264 kts | 60° |
| 2026-05-06 12:18 | 47.91045 | 10.33403 | 7551 ft | 263 kts | 59° |
| 2026-05-06 12:19 | 47.91973 | 10.35746 | 7259 ft | 261 kts | 59° |
| 2026-05-06 12:19 | 47.92891 | 10.38063 | 6995 ft | 258 kts | 59° |
| 2026-05-06 12:19 | 47.93797 | 10.40350 | 6720 ft | 256 kts | 59° |
| 2026-05-06 12:19 | 47.94694 | 10.42616 | 6451 ft | 253 kts | 59° |
| 2026-05-06 12:20 | 47.95581 | 10.44864 | 6174 ft | 251 kts | 59° |
| 2026-05-06 12:20 | 47.96462 | 10.47098 | 5935 ft | 248 kts | 59° |
| 2026-05-06 12:20 | 47.97317 | 10.49269 | 5874 ft | 236 kts | 59° |
| 2026-05-06 12:20 | 47.98310 | 10.51122 | 5775 ft | 225 kts | 37° |
| 2026-05-06 12:21 | 47.99699 | 10.52017 | 5652 ft | 216 kts | 8° |
| 2026-05-06 12:21 | 48.01196 | 10.51863 | 5586 ft | 220 kts | 343° |
| 2026-05-06 12:21 | 48.02565 | 10.50943 | 5584 ft | 212 kts | 333° |
| 2026-05-06 12:21 | 48.03856 | 10.49921 | 5478 ft | 209 kts | 332° |
| 2026-05-06 12:22 | 48.05126 | 10.48878 | 5335 ft | 208 kts | 331° |
| 2026-05-06 12:22 | 48.06265 | 10.47634 | 5116 ft | 208 kts | 309° |
| 2026-05-06 12:22 | 48.06827 | 10.45706 | 4927 ft | 201 kts | 276° |
| 2026-05-06 12:22 | 48.06616 | 10.43713 | 4734 ft | 193 kts | 248° |
| 2026-05-06 12:23 | 48.06010 | 10.41980 | 4529 ft | 184 kts | 240° |
| 2026-05-06 12:23 | 48.05367 | 10.40349 | 4349 ft | 179 kts | 240° |
| 2026-05-06 12:23 | 48.04758 | 10.38813 | 4131 ft | 166 kts | 240° |
| 2026-05-06 12:23 | 48.04184 | 10.37361 | 3909 ft | 160 kts | 240° |
| 2026-05-06 12:24 | 48.03622 | 10.35942 | 3700 ft | 158 kts | 241° |
| 2026-05-06 12:24 | 48.03067 | 10.34529 | 3485 ft | 157 kts | 240° |
| 2026-05-06 12:24 | 48.02508 | 10.33125 | 3281 ft | 157 kts | 240° |
| 2026-05-06 12:24 | 48.01951 | 10.31723 | 3072 ft | 157 kts | 241° |
| 2026-05-06 12:25 | 48.01405 | 10.30315 | 2872 ft | 157 kts | 240° |
| 2026-05-06 12:25 | 48.00850 | 10.28908 | 2589 ft | 158 kts | 240° |
| 2026-05-06 12:25 | 48.00295 | 10.27526 | 2367 ft | 153 kts | 242° |
| 2026-05-06 12:25 | 47.99750 | 10.26136 | 2210 ft | 156 kts | 242° |
| 2026-05-06 12:26 | 47.99204 | 10.24773 | 2073 ft | 145 kts | 243° |
| 2026-05-06 12:26 | 47.98777 | 10.23676 | 2084 ft | 79 kts | 238° |
| 2026-05-06 12:26 | 47.98561 | 10.23158 | 2082 ft | 22 kts | 248° |
| 2026-05-06 12:26 | 47.98591 | 10.23049 | 2083 ft | 0 kts | 330° |